sensor_id;sensor_type;location;lat;lon;timestamp;temperature;humidity
21627;DHT22;10975;47.872;12.972;2024-01-10T00:00:15;-7.00;99.90
21627;DHT22;10975;47.872;12.972;2024-01-10T00:02:42;-7.00;99.90
21627;DHT22;10975;47.872;12.972;2024-01-10T00:05:09;-6.90;99.90
21627;DHT22;10975;47.872;12.972;2024-01-10T00:07:36;-6.90;99.90
21627;DHT22;10975;47.872;12.972;2024-01-10T00:10:04;-6.90;99.90
21627;DHT22;10975;47.872;12.972;2024-01-10T00:12:31;-6.90;99.90
21627;DHT22;10975;47.872;12.972;2024-01-10T00:15:06;-6.80;99.90
21627;DHT22;10975;47.872;12.972;2024-01-10T00:17:33;-6.80;99.90
21627;DHT22;10975;47.872;12.972;2024-01-10T00:20:00;-6.80;99.90
21627;DHT22;10975;47.872;12.972;2024-01-10T00:22:27;-6.70;99.90
21627;DHT22;10975;47.872;12.972;2024-01-10T00:24:54;-6.70;99.90
21627;DHT22;10975;47.872;12.972;2024-01-10T00:27:21;-6.70;99.90
21627;DHT22;10975;47.872;12.972;2024-01-10T00:29:48;-6.60;99.90
21627;DHT22;10975;47.872;12.972;2024-01-10T00:32:15;-6.60;99.90
21627;DHT22;10975;47.872;12.972;2024-01-10T00:34:42;-6.60;99.90
21627;DHT22;10975;47.872;12.972;2024-01-10T00:37:09;-6.60;99.90
21627;DHT22;10975;47.872;12.972;2024-01-10T00:39:36;-6.50;99.90
21627;DHT22;10975;47.872;12.972;2024-01-10T00:42:03;-6.50;99.90
21627;DHT22;10975;47.872;12.972;2024-01-10T00:44:30;-6.40;99.90
21627;DHT22;10975;47.872;12.972;2024-01-10T00:46:57;-6.30;99.90
21627;DHT22;10975;47.872;12.972;2024-01-10T00:49:24;-6.30;99.90
21627;DHT22;10975;47.872;12.972;2024-01-10T00:51:50;-6.30;99.90
21627;DHT22;10975;47.872;12.972;2024-01-10T00:54:17;-6.30;99.90
21627;DHT22;10975;47.872;12.972;2024-01-10T00:56:44;-6.20;99.90
21627;DHT22;10975;47.872;12.972;2024-01-10T00:59:11;-6.20;99.90
21627;DHT22;10975;47.872;12.972;2024-01-10T01:01:38;-6.20;99.90
21627;DHT22;10975;47.872;12.972;2024-01-10T01:04:05;-6.20;99.90
21627;DHT22;10975;47.872;12.972;2024-01-10T01:06:32;-6.20;99.90
21627;DHT22;10975;47.872;12.972;2024-01-10T01:08:59;-6.20;99.90
21627;DHT22;10975;47.872;12.972;2024-01-10T01:11:26;-6.20;99.90
21627;DHT22;10975;47.872;12.972;2024-01-10T01:13:53;-6.10;99.90
21627;DHT22;10975;47.872;12.972;2024-01-10T01:16:20;-6.10;99.90
21627;DHT22;10975;47.872;12.972;2024-01-10T01:18:46;-6.00;99.90
21627;DHT22;10975;47.872;12.972;2024-01-10T01:21:13;-6.00;99.90
21627;DHT22;10975;47.872;12.972;2024-01-10T01:23:40;-6.00;99.90
21627;DHT22;10975;47.872;12.972;2024-01-10T01:26:08;-6.00;99.90
21627;DHT22;10975;47.872;12.972;2024-01-10T01:28:36;-5.90;99.90
21627;DHT22;10975;47.872;12.972;2024-01-10T01:31:03;-5.90;99.90
21627;DHT22;10975;47.872;12.972;2024-01-10T01:33:30;-5.80;99.90
21627;DHT22;10975;47.872;12.972;2024-01-10T01:35:57;-5.90;99.90
21627;DHT22;10975;47.872;12.972;2024-01-10T01:38:24;-5.90;99.90
21627;DHT22;10975;47.872;12.972;2024-01-10T01:40:51;-5.90;99.90
21627;DHT22;10975;47.872;12.972;2024-01-10T01:43:23;-5.90;99.90
21627;DHT22;10975;47.872;12.972;2024-01-10T01:45:52;-5.90;99.90
21627;DHT22;10975;47.872;12.972;2024-01-10T01:48:21;-5.80;99.90
21627;DHT22;10975;47.872;12.972;2024-01-10T01:50:51;-5.80;99.90
21627;DHT22;10975;47.872;12.972;2024-01-10T01:53:19;-5.80;99.90
21627;DHT22;10975;47.872;12.972;2024-01-10T01:55:46;-5.80;99.90
21627;DHT22;10975;47.872;12.972;2024-01-10T01:58:13;-5.80;99.90
21627;DHT22;10975;47.872;12.972;2024-01-10T02:00:41;-5.80;99.90
21627;DHT22;10975;47.872;12.972;2024-01-10T02:03:09;-5.80;99.90
21627;DHT22;10975;47.872;12.972;2024-01-10T02:05:37;-5.70;99.90
21627;DHT22;10975;47.872;12.972;2024-01-10T02:08:04;-5.70;99.90
21627;DHT22;10975;47.872;12.972;2024-01-10T02:10:31;-5.70;99.90
21627;DHT22;10975;47.872;12.972;2024-01-10T02:12:58;-5.70;99.90
21627;DHT22;10975;47.872;12.972;2024-01-10T02:15:25;-5.70;99.90
21627;DHT22;10975;47.872;12.972;2024-01-10T02:17:52;-5.70;99.90
21627;DHT22;10975;47.872;12.972;2024-01-10T02:20:19;-5.70;99.90
21627;DHT22;10975;47.872;12.972;2024-01-10T02:22:48;-5.60;99.90
21627;DHT22;10975;47.872;12.972;2024-01-10T02:25:17;-5.60;99.90
21627;DHT22;10975;47.872;12.972;2024-01-10T02:27:44;-5.60;99.90
21627;DHT22;10975;47.872;12.972;2024-01-10T02:30:11;-5.60;99.90
21627;DHT22;10975;47.872;12.972;2024-01-10T02:32:38;-5.50;99.90
21627;DHT22;10975;47.872;12.972;2024-01-10T02:35:06;-5.50;99.90
21627;DHT22;10975;47.872;12.972;2024-01-10T02:37:33;-5.50;99.90
21627;DHT22;10975;47.872;12.972;2024-01-10T02:40:00;-5.50;99.90
21627;DHT22;10975;47.872;12.972;2024-01-10T02:42:28;-5.50;99.90
21627;DHT22;10975;47.872;12.972;2024-01-10T02:44:55;-5.50;99.90
21627;DHT22;10975;47.872;12.972;2024-01-10T02:47:22;-5.50;99.90
21627;DHT22;10975;47.872;12.972;2024-01-10T02:49:49;-5.60;99.90
21627;DHT22;10975;47.872;12.972;2024-01-10T02:52:16;-5.60;99.90
21627;DHT22;10975;47.872;12.972;2024-01-10T02:54:43;-5.50;99.90
21627;DHT22;10975;47.872;12.972;2024-01-10T02:57:10;-5.50;99.90
21627;DHT22;10975;47.872;12.972;2024-01-10T02:59:36;-5.50;99.90
21627;DHT22;10975;47.872;12.972;2024-01-10T03:02:03;-5.50;99.90
21627;DHT22;10975;47.872;12.972;2024-01-10T03:04:31;-5.50;99.90
21627;DHT22;10975;47.872;12.972;2024-01-10T03:06:57;-5.50;99.90
21627;DHT22;10975;47.872;12.972;2024-01-10T03:09:24;-5.50;99.90
21627;DHT22;10975;47.872;12.972;2024-01-10T03:11:51;-5.40;99.90
21627;DHT22;10975;47.872;12.972;2024-01-10T03:14:18;-5.40;99.90
21627;DHT22;10975;47.872;12.972;2024-01-10T03:16:45;-5.30;99.90
21627;DHT22;10975;47.872;12.972;2024-01-10T03:19:12;-5.30;99.90
21627;DHT22;10975;47.872;12.972;2024-01-10T03:21:39;-5.30;99.90
21627;DHT22;10975;47.872;12.972;2024-01-10T03:24:06;-5.30;99.90
21627;DHT22;10975;47.872;12.972;2024-01-10T03:26:34;-5.30;99.90
21627;DHT22;10975;47.872;12.972;2024-01-10T03:29:00;-5.30;99.90
21627;DHT22;10975;47.872;12.972;2024-01-10T03:31:28;-5.20;99.90
21627;DHT22;10975;47.872;12.972;2024-01-10T03:33:57;-5.20;99.90
21627;DHT22;10975;47.872;12.972;2024-01-10T03:36:25;-5.20;99.90
21627;DHT22;10975;47.872;12.972;2024-01-10T03:38:52;-5.20;99.90
21627;DHT22;10975;47.872;12.972;2024-01-10T03:41:20;-5.20;99.90
21627;DHT22;10975;47.872;12.972;2024-01-10T03:43:47;-5.20;99.90
21627;DHT22;10975;47.872;12.972;2024-01-10T03:46:15;-5.20;99.90
21627;DHT22;10975;47.872;12.972;2024-01-10T03:48:43;-5.10;99.90
21627;DHT22;10975;47.872;12.972;2024-01-10T03:51:18;-5.10;99.90
21627;DHT22;10975;47.872;12.972;2024-01-10T03:53:46;-5.20;99.90
21627;DHT22;10975;47.872;12.972;2024-01-10T03:56:12;-5.20;99.90
21627;DHT22;10975;47.872;12.972;2024-01-10T03:58:40;-5.20;99.90
21627;DHT22;10975;47.872;12.972;2024-01-10T04:01:08;-5.20;99.90
21627;DHT22;10975;47.872;12.972;2024-01-10T04:03:35;-5.20;99.90
21627;DHT22;10975;47.872;12.972;2024-01-10T04:06:03;-5.10;99.90
21627;DHT22;10975;47.872;12.972;2024-01-10T04:08:30;-5.10;99.90
21627;DHT22;10975;47.872;12.972;2024-01-10T04:10:57;-5.10;99.90
21627;DHT22;10975;47.872;12.972;2024-01-10T04:13:25;-5.10;99.90
21627;DHT22;10975;47.872;12.972;2024-01-10T04:15:52;-5.00;99.90
21627;DHT22;10975;47.872;12.972;2024-01-10T04:18:19;-5.00;99.90
21627;DHT22;10975;47.872;12.972;2024-01-10T04:20:48;-5.00;99.90
21627;DHT22;10975;47.872;12.972;2024-01-10T04:23:16;-5.00;99.90
21627;DHT22;10975;47.872;12.972;2024-01-10T04:25:42;-4.90;99.90
21627;DHT22;10975;47.872;12.972;2024-01-10T04:28:09;-4.80;99.90
21627;DHT22;10975;47.872;12.972;2024-01-10T04:30:36;-4.80;99.90
21627;DHT22;10975;47.872;12.972;2024-01-10T04:33:03;-4.70;99.90
21627;DHT22;10975;47.872;12.972;2024-01-10T04:35:30;-4.70;99.90
21627;DHT22;10975;47.872;12.972;2024-01-10T04:37:58;-4.80;99.90
21627;DHT22;10975;47.872;12.972;2024-01-10T04:40:24;-4.80;99.90
21627;DHT22;10975;47.872;12.972;2024-01-10T04:42:51;-4.90;99.90
21627;DHT22;10975;47.872;12.972;2024-01-10T04:45:18;-4.90;99.90
21627;DHT22;10975;47.872;12.972;2024-01-10T04:47:45;-4.90;99.90
21627;DHT22;10975;47.872;12.972;2024-01-10T04:50:12;-4.90;99.90
21627;DHT22;10975;47.872;12.972;2024-01-10T04:52:40;-4.90;99.90
21627;DHT22;10975;47.872;12.972;2024-01-10T04:55:07;-4.90;99.90
21627;DHT22;10975;47.872;12.972;2024-01-10T04:57:35;-4.80;99.90
21627;DHT22;10975;47.872;12.972;2024-01-10T05:00:03;-4.90;99.90
21627;DHT22;10975;47.872;12.972;2024-01-10T05:02:31;-4.90;99.90
21627;DHT22;10975;47.872;12.972;2024-01-10T05:04:58;-4.80;99.90
21627;DHT22;10975;47.872;12.972;2024-01-10T05:07:26;-4.90;99.90
21627;DHT22;10975;47.872;12.972;2024-01-10T05:09:53;-4.90;99.90
21627;DHT22;10975;47.872;12.972;2024-01-10T05:12:20;-4.90;99.90
21627;DHT22;10975;47.872;12.972;2024-01-10T05:14:47;-5.00;99.90
21627;DHT22;10975;47.872;12.972;2024-01-10T05:17:13;-5.00;99.90
21627;DHT22;10975;47.872;12.972;2024-01-10T05:19:41;-4.90;99.90
21627;DHT22;10975;47.872;12.972;2024-01-10T05:22:08;-4.90;99.90
21627;DHT22;10975;47.872;12.972;2024-01-10T05:24:35;-4.90;99.90
21627;DHT22;10975;47.872;12.972;2024-01-10T05:27:02;-4.90;99.90
21627;DHT22;10975;47.872;12.972;2024-01-10T05:29:29;-4.90;99.90
21627;DHT22;10975;47.872;12.972;2024-01-10T05:31:56;-4.90;99.90
21627;DHT22;10975;47.872;12.972;2024-01-10T05:34:23;-4.80;99.90
21627;DHT22;10975;47.872;12.972;2024-01-10T05:36:50;-4.80;99.90
21627;DHT22;10975;47.872;12.972;2024-01-10T05:39:17;-4.80;99.90
21627;DHT22;10975;47.872;12.972;2024-01-10T05:41:47;-4.80;99.90
21627;DHT22;10975;47.872;12.972;2024-01-10T05:44:14;-4.80;99.90
21627;DHT22;10975;47.872;12.972;2024-01-10T05:46:41;-4.80;99.90
21627;DHT22;10975;47.872;12.972;2024-01-10T05:49:11;-4.80;99.90
21627;DHT22;10975;47.872;12.972;2024-01-10T05:51:38;-4.70;99.90
21627;DHT22;10975;47.872;12.972;2024-01-10T05:54:05;-4.70;99.90
21627;DHT22;10975;47.872;12.972;2024-01-10T05:56:33;-4.70;99.90
21627;DHT22;10975;47.872;12.972;2024-01-10T05:59:00;-4.70;99.90
21627;DHT22;10975;47.872;12.972;2024-01-10T06:01:28;-4.80;99.90
21627;DHT22;10975;47.872;12.972;2024-01-10T06:03:55;-4.80;99.90
21627;DHT22;10975;47.872;12.972;2024-01-10T06:06:23;-4.70;99.90
21627;DHT22;10975;47.872;12.972;2024-01-10T06:08:50;-4.70;99.90
21627;DHT22;10975;47.872;12.972;2024-01-10T06:11:18;-4.80;99.90
21627;DHT22;10975;47.872;12.972;2024-01-10T06:13:45;-4.70;99.90
21627;DHT22;10975;47.872;12.972;2024-01-10T06:16:22;-4.70;99.90
21627;DHT22;10975;47.872;12.972;2024-01-10T06:18:49;-4.60;99.90
21627;DHT22;10975;47.872;12.972;2024-01-10T06:21:16;-4.60;99.90
21627;DHT22;10975;47.872;12.972;2024-01-10T06:23:43;-4.60;99.90
21627;DHT22;10975;47.872;12.972;2024-01-10T06:26:10;-4.60;99.90
21627;DHT22;10975;47.872;12.972;2024-01-10T06:28:37;-4.60;99.90
21627;DHT22;10975;47.872;12.972;2024-01-10T06:31:05;-4.60;99.90
21627;DHT22;10975;47.872;12.972;2024-01-10T06:33:36;-4.60;99.90
21627;DHT22;10975;47.872;12.972;2024-01-10T06:36:03;-4.60;99.90
21627;DHT22;10975;47.872;12.972;2024-01-10T06:38:30;-4.60;99.90
21627;DHT22;10975;47.872;12.972;2024-01-10T06:40:57;-4.50;99.90
21627;DHT22;10975;47.872;12.972;2024-01-10T06:43:24;-4.60;99.90
21627;DHT22;10975;47.872;12.972;2024-01-10T06:45:50;-4.60;99.90
21627;DHT22;10975;47.872;12.972;2024-01-10T06:48:17;-4.60;99.90
21627;DHT22;10975;47.872;12.972;2024-01-10T06:50:45;-4.60;99.90
21627;DHT22;10975;47.872;12.972;2024-01-10T06:53:12;-4.50;99.90
21627;DHT22;10975;47.872;12.972;2024-01-10T06:55:40;-4.40;99.90
21627;DHT22;10975;47.872;12.972;2024-01-10T06:58:07;-4.40;99.90
21627;DHT22;10975;47.872;12.972;2024-01-10T07:00:34;-4.40;99.90
21627;DHT22;10975;47.872;12.972;2024-01-10T07:03:01;-4.40;99.90
21627;DHT22;10975;47.872;12.972;2024-01-10T07:05:29;-4.30;99.90
21627;DHT22;10975;47.872;12.972;2024-01-10T07:07:58;-4.30;99.90
21627;DHT22;10975;47.872;12.972;2024-01-10T07:10:26;-4.40;99.90
21627;DHT22;10975;47.872;12.972;2024-01-10T07:12:55;-4.30;99.90
21627;DHT22;10975;47.872;12.972;2024-01-10T07:15:22;-4.30;99.90
21627;DHT22;10975;47.872;12.972;2024-01-10T07:17:49;-4.30;99.90
21627;DHT22;10975;47.872;12.972;2024-01-10T07:20:16;-4.30;99.90
21627;DHT22;10975;47.872;12.972;2024-01-10T07:22:42;-4.30;99.90
21627;DHT22;10975;47.872;12.972;2024-01-10T07:25:11;-4.30;99.90
21627;DHT22;10975;47.872;12.972;2024-01-10T07:27:41;-4.30;99.90
21627;DHT22;10975;47.872;12.972;2024-01-10T07:30:09;-4.30;99.90
21627;DHT22;10975;47.872;12.972;2024-01-10T07:32:43;-4.20;99.90
21627;DHT22;10975;47.872;12.972;2024-01-10T07:35:12;-4.20;99.90
21627;DHT22;10975;47.872;12.972;2024-01-10T07:37:41;-4.20;99.90
21627;DHT22;10975;47.872;12.972;2024-01-10T07:40:09;-4.20;99.90
21627;DHT22;10975;47.872;12.972;2024-01-10T07:42:37;-4.20;99.90
21627;DHT22;10975;47.872;12.972;2024-01-10T07:45:06;-4.10;99.90
21627;DHT22;10975;47.872;12.972;2024-01-10T07:47:35;-4.10;99.90
21627;DHT22;10975;47.872;12.972;2024-01-10T07:50:06;-4.00;99.90
21627;DHT22;10975;47.872;12.972;2024-01-10T07:52:33;-4.00;99.90
21627;DHT22;10975;47.872;12.972;2024-01-10T07:55:01;-3.90;99.90
21627;DHT22;10975;47.872;12.972;2024-01-10T07:57:28;-3.80;99.90
21627;DHT22;10975;47.872;12.972;2024-01-10T07:59:54;-3.80;99.90
21627;DHT22;10975;47.872;12.972;2024-01-10T08:02:21;-3.80;99.90
21627;DHT22;10975;47.872;12.972;2024-01-10T08:04:49;-3.80;99.90
21627;DHT22;10975;47.872;12.972;2024-01-10T08:07:15;-3.80;99.90
21627;DHT22;10975;47.872;12.972;2024-01-10T08:09:42;-3.80;99.90
21627;DHT22;10975;47.872;12.972;2024-01-10T08:12:09;-3.70;99.90
21627;DHT22;10975;47.872;12.972;2024-01-10T08:14:38;-3.70;99.90
21627;DHT22;10975;47.872;12.972;2024-01-10T08:17:06;-3.70;99.90
21627;DHT22;10975;47.872;12.972;2024-01-10T08:19:33;-3.70;99.90
21627;DHT22;10975;47.872;12.972;2024-01-10T08:22:00;-3.70;99.90
21627;DHT22;10975;47.872;12.972;2024-01-10T08:24:27;-3.70;99.90
21627;DHT22;10975;47.872;12.972;2024-01-10T08:26:54;-3.80;99.90
21627;DHT22;10975;47.872;12.972;2024-01-10T08:29:21;-3.80;99.90
21627;DHT22;10975;47.872;12.972;2024-01-10T08:31:48;-3.80;99.90
21627;DHT22;10975;47.872;12.972;2024-01-10T08:34:15;-3.70;99.90
21627;DHT22;10975;47.872;12.972;2024-01-10T08:36:42;-3.80;99.90
21627;DHT22;10975;47.872;12.972;2024-01-10T08:39:09;-3.70;99.90
21627;DHT22;10975;47.872;12.972;2024-01-10T08:41:37;-3.60;99.90
21627;DHT22;10975;47.872;12.972;2024-01-10T08:44:12;-3.60;99.90
21627;DHT22;10975;47.872;12.972;2024-01-10T08:46:39;-3.60;99.90
21627;DHT22;10975;47.872;12.972;2024-01-10T08:49:06;-3.50;99.90
21627;DHT22;10975;47.872;12.972;2024-01-10T08:51:33;-3.40;99.90
21627;DHT22;10975;47.872;12.972;2024-01-10T08:54:00;-3.30;99.90
21627;DHT22;10975;47.872;12.972;2024-01-10T08:56:28;-3.20;99.90
21627;DHT22;10975;47.872;12.972;2024-01-10T08:58:55;-3.20;99.90
21627;DHT22;10975;47.872;12.972;2024-01-10T09:01:22;-3.20;99.90
21627;DHT22;10975;47.872;12.972;2024-01-10T09:03:49;-3.20;99.90
21627;DHT22;10975;47.872;12.972;2024-01-10T09:06:16;-3.10;99.90
21627;DHT22;10975;47.872;12.972;2024-01-10T09:08:43;-3.10;99.90
21627;DHT22;10975;47.872;12.972;2024-01-10T09:11:10;-3.00;99.90
21627;DHT22;10975;47.872;12.972;2024-01-10T09:13:37;-2.90;99.90
21627;DHT22;10975;47.872;12.972;2024-01-10T09:16:06;-2.80;99.90
21627;DHT22;10975;47.872;12.972;2024-01-10T09:18:33;-2.80;99.90
21627;DHT22;10975;47.872;12.972;2024-01-10T09:21:00;-2.70;99.90
21627;DHT22;10975;47.872;12.972;2024-01-10T09:23:27;-2.60;99.90
21627;DHT22;10975;47.872;12.972;2024-01-10T09:25:55;-2.60;99.90
21627;DHT22;10975;47.872;12.972;2024-01-10T09:28:22;-2.50;99.90
21627;DHT22;10975;47.872;12.972;2024-01-10T09:30:49;-2.50;99.90
21627;DHT22;10975;47.872;12.972;2024-01-10T09:33:15;-2.40;99.90
21627;DHT22;10975;47.872;12.972;2024-01-10T09:35:43;-2.40;99.90
21627;DHT22;10975;47.872;12.972;2024-01-10T09:38:09;-2.40;99.90
21627;DHT22;10975;47.872;12.972;2024-01-10T09:40:36;-2.30;99.90
21627;DHT22;10975;47.872;12.972;2024-01-10T09:43:05;-2.30;99.90
21627;DHT22;10975;47.872;12.972;2024-01-10T09:45:35;-2.30;99.90
21627;DHT22;10975;47.872;12.972;2024-01-10T09:48:03;-2.20;99.90
21627;DHT22;10975;47.872;12.972;2024-01-10T09:50:30;-2.10;99.90
21627;DHT22;10975;47.872;12.972;2024-01-10T09:53:07;-2.20;99.90
21627;DHT22;10975;47.872;12.972;2024-01-10T09:55:37;-2.20;99.90
21627;DHT22;10975;47.872;12.972;2024-01-10T09:58:07;-2.20;99.90
21627;DHT22;10975;47.872;12.972;2024-01-10T10:00:36;-2.10;99.90
21627;DHT22;10975;47.872;12.972;2024-01-10T10:03:10;-2.00;99.90
21627;DHT22;10975;47.872;12.972;2024-01-10T10:05:39;-2.00;99.90
21627;DHT22;10975;47.872;12.972;2024-01-10T10:08:13;-2.00;99.90
21627;DHT22;10975;47.872;12.972;2024-01-10T10:10:49;-2.00;99.90
21627;DHT22;10975;47.872;12.972;2024-01-10T10:13:27;-2.10;99.90
21627;DHT22;10975;47.872;12.972;2024-01-10T10:15:59;-2.20;99.90
21627;DHT22;10975;47.872;12.972;2024-01-10T10:18:30;-2.20;99.90
21627;DHT22;10975;47.872;12.972;2024-01-10T10:21:11;-2.30;99.90
21627;DHT22;10975;47.872;12.972;2024-01-10T10:23:43;-2.30;99.90
21627;DHT22;10975;47.872;12.972;2024-01-10T10:26:23;-2.20;99.90
21627;DHT22;10975;47.872;12.972;2024-01-10T10:28:50;-2.30;99.90
21627;DHT22;10975;47.872;12.972;2024-01-10T10:31:19;-2.40;99.90
21627;DHT22;10975;47.872;12.972;2024-01-10T10:33:48;-2.60;99.90
21627;DHT22;10975;47.872;12.972;2024-01-10T10:36:16;-2.70;99.90
21627;DHT22;10975;47.872;12.972;2024-01-10T10:38:43;-2.70;99.90
21627;DHT22;10975;47.872;12.972;2024-01-10T10:41:10;-2.70;99.90
21627;DHT22;10975;47.872;12.972;2024-01-10T10:43:38;-2.70;99.90
21627;DHT22;10975;47.872;12.972;2024-01-10T10:46:08;-2.70;99.90
21627;DHT22;10975;47.872;12.972;2024-01-10T10:48:36;-2.70;99.90
21627;DHT22;10975;47.872;12.972;2024-01-10T10:51:33;-2.70;99.90
21627;DHT22;10975;47.872;12.972;2024-01-10T10:54:00;-2.70;99.90
21627;DHT22;10975;47.872;12.972;2024-01-10T10:56:31;-2.70;99.90
21627;DHT22;10975;47.872;12.972;2024-01-10T10:59:00;-2.80;99.90
21627;DHT22;10975;47.872;12.972;2024-01-10T11:01:28;-2.90;99.90
21627;DHT22;10975;47.872;12.972;2024-01-10T11:03:55;-3.00;99.90
21627;DHT22;10975;47.872;12.972;2024-01-10T11:06:23;-3.10;99.90
21627;DHT22;10975;47.872;12.972;2024-01-10T11:09:00;-3.00;99.90
21627;DHT22;10975;47.872;12.972;2024-01-10T11:21:02;-3.00;99.90
21627;DHT22;10975;47.872;12.972;2024-01-10T11:23:44;-3.10;99.90
21627;DHT22;10975;47.872;12.972;2024-01-10T11:26:14;-3.20;99.90
21627;DHT22;10975;47.872;12.972;2024-01-10T11:28:42;-3.20;99.90
21627;DHT22;10975;47.872;12.972;2024-01-10T11:31:09;-3.20;99.90
21627;DHT22;10975;47.872;12.972;2024-01-10T11:33:38;-3.20;99.90
21627;DHT22;10975;47.872;12.972;2024-01-10T11:36:13;-3.20;99.90
21627;DHT22;10975;47.872;12.972;2024-01-10T11:39:03;-3.10;99.90
21627;DHT22;10975;47.872;12.972;2024-01-10T11:41:34;-3.10;99.90
21627;DHT22;10975;47.872;12.972;2024-01-10T11:46:42;-3.00;99.90
21627;DHT22;10975;47.872;12.972;2024-01-10T11:49:10;-2.90;99.90
21627;DHT22;10975;47.872;12.972;2024-01-10T11:51:39;-2.90;99.90
21627;DHT22;10975;47.872;12.972;2024-01-10T11:57:02;-2.80;99.90
21627;DHT22;10975;47.872;12.972;2024-01-10T11:59:30;-2.80;99.90
21627;DHT22;10975;47.872;12.972;2024-01-10T12:01:58;-2.80;99.90
21627;DHT22;10975;47.872;12.972;2024-01-10T12:04:25;-2.80;99.90
21627;DHT22;10975;47.872;12.972;2024-01-10T12:07:12;-2.80;99.90
21627;DHT22;10975;47.872;12.972;2024-01-10T12:09:40;-2.80;99.90
21627;DHT22;10975;47.872;12.972;2024-01-10T12:12:08;-2.70;99.90
21627;DHT22;10975;47.872;12.972;2024-01-10T12:14:37;-2.70;99.90
21627;DHT22;10975;47.872;12.972;2024-01-10T12:17:05;-2.60;99.90
21627;DHT22;10975;47.872;12.972;2024-01-10T12:19:34;-2.50;99.90
21627;DHT22;10975;47.872;12.972;2024-01-10T12:22:04;-2.40;99.90
21627;DHT22;10975;47.872;12.972;2024-01-10T12:24:34;-2.40;99.90
21627;DHT22;10975;47.872;12.972;2024-01-10T12:27:05;-2.30;99.90
21627;DHT22;10975;47.872;12.972;2024-01-10T12:29:31;-2.40;99.90
21627;DHT22;10975;47.872;12.972;2024-01-10T12:31:59;-2.30;99.90
21627;DHT22;10975;47.872;12.972;2024-01-10T12:34:26;-2.30;99.90
21627;DHT22;10975;47.872;12.972;2024-01-10T12:36:56;-2.30;99.90
21627;DHT22;10975;47.872;12.972;2024-01-10T12:39:23;-2.30;99.90
21627;DHT22;10975;47.872;12.972;2024-01-10T12:41:52;-2.40;99.90
21627;DHT22;10975;47.872;12.972;2024-01-10T12:44:19;-2.40;99.90
21627;DHT22;10975;47.872;12.972;2024-01-10T12:46:50;-2.30;99.90
21627;DHT22;10975;47.872;12.972;2024-01-10T12:49:18;-2.30;99.90
21627;DHT22;10975;47.872;12.972;2024-01-10T12:51:47;-2.40;99.90
21627;DHT22;10975;47.872;12.972;2024-01-10T12:54:15;-2.30;99.90
21627;DHT22;10975;47.872;12.972;2024-01-10T12:56:43;-2.30;99.90
21627;DHT22;10975;47.872;12.972;2024-01-10T12:59:11;-2.40;99.90
21627;DHT22;10975;47.872;12.972;2024-01-10T13:01:38;-2.50;99.90
21627;DHT22;10975;47.872;12.972;2024-01-10T13:04:05;-2.50;99.90
21627;DHT22;10975;47.872;12.972;2024-01-10T13:06:35;-2.60;99.90
21627;DHT22;10975;47.872;12.972;2024-01-10T13:09:02;-2.60;99.90
21627;DHT22;10975;47.872;12.972;2024-01-10T13:11:29;-2.60;99.90
21627;DHT22;10975;47.872;12.972;2024-01-10T13:13:57;-2.70;99.90
21627;DHT22;10975;47.872;12.972;2024-01-10T13:16:24;-2.80;99.90
21627;DHT22;10975;47.872;12.972;2024-01-10T13:18:51;-2.80;99.90
21627;DHT22;10975;47.872;12.972;2024-01-10T13:21:20;-2.80;99.90
21627;DHT22;10975;47.872;12.972;2024-01-10T13:23:47;-2.80;99.90
21627;DHT22;10975;47.872;12.972;2024-01-10T13:26:14;-2.80;99.90
21627;DHT22;10975;47.872;12.972;2024-01-10T13:28:42;-2.80;99.90
21627;DHT22;10975;47.872;12.972;2024-01-10T13:31:09;-2.80;99.90
21627;DHT22;10975;47.872;12.972;2024-01-10T13:33:37;-2.80;99.90
21627;DHT22;10975;47.872;12.972;2024-01-10T13:36:12;-2.80;99.90
21627;DHT22;10975;47.872;12.972;2024-01-10T13:38:39;-2.70;99.90
21627;DHT22;10975;47.872;12.972;2024-01-10T13:41:06;-2.80;99.90
21627;DHT22;10975;47.872;12.972;2024-01-10T13:43:33;-2.80;99.90
21627;DHT22;10975;47.872;12.972;2024-01-10T13:46:00;-2.90;99.90
21627;DHT22;10975;47.872;12.972;2024-01-10T13:48:34;-2.80;99.90
21627;DHT22;10975;47.872;12.972;2024-01-10T13:51:00;-2.90;99.90
21627;DHT22;10975;47.872;12.972;2024-01-10T13:53:27;-3.00;99.90
21627;DHT22;10975;47.872;12.972;2024-01-10T13:55:54;-3.00;99.90
21627;DHT22;10975;47.872;12.972;2024-01-10T13:58:22;-3.00;99.90
21627;DHT22;10975;47.872;12.972;2024-01-10T14:00:50;-3.00;99.90
21627;DHT22;10975;47.872;12.972;2024-01-10T14:03:18;-3.10;99.90
21627;DHT22;10975;47.872;12.972;2024-01-10T14:05:45;-3.10;99.90
21627;DHT22;10975;47.872;12.972;2024-01-10T14:08:12;-3.10;99.90
21627;DHT22;10975;47.872;12.972;2024-01-10T14:10:39;-3.10;99.90
21627;DHT22;10975;47.872;12.972;2024-01-10T14:13:07;-3.10;99.90
21627;DHT22;10975;47.872;12.972;2024-01-10T14:15:34;-3.10;99.90
21627;DHT22;10975;47.872;12.972;2024-01-10T14:18:00;-3.10;99.90
21627;DHT22;10975;47.872;12.972;2024-01-10T14:20:28;-3.30;99.90
21627;DHT22;10975;47.872;12.972;2024-01-10T14:22:55;-3.20;99.90
21627;DHT22;10975;47.872;12.972;2024-01-10T14:25:22;-3.20;99.90
21627;DHT22;10975;47.872;12.972;2024-01-10T14:27:49;-3.10;99.90
21627;DHT22;10975;47.872;12.972;2024-01-10T14:30:15;-3.10;99.90
21627;DHT22;10975;47.872;12.972;2024-01-10T14:32:42;-3.10;99.90
21627;DHT22;10975;47.872;12.972;2024-01-10T14:35:10;-3.10;99.90
21627;DHT22;10975;47.872;12.972;2024-01-10T14:37:37;-3.10;99.90
21627;DHT22;10975;47.872;12.972;2024-01-10T14:40:05;-3.10;99.90
21627;DHT22;10975;47.872;12.972;2024-01-10T14:42:33;-3.10;99.90
21627;DHT22;10975;47.872;12.972;2024-01-10T14:45:00;-3.10;99.90
21627;DHT22;10975;47.872;12.972;2024-01-10T14:47:28;-3.10;99.90
21627;DHT22;10975;47.872;12.972;2024-01-10T14:49:55;-3.20;99.90
21627;DHT22;10975;47.872;12.972;2024-01-10T14:52:25;-3.20;99.90
21627;DHT22;10975;47.872;12.972;2024-01-10T14:54:53;-3.20;99.90
21627;DHT22;10975;47.872;12.972;2024-01-10T14:57:20;-3.30;99.90
21627;DHT22;10975;47.872;12.972;2024-01-10T14:59:48;-3.30;99.90
21627;DHT22;10975;47.872;12.972;2024-01-10T15:02:16;-3.30;99.90
21627;DHT22;10975;47.872;12.972;2024-01-10T15:04:46;-3.30;99.90
21627;DHT22;10975;47.872;12.972;2024-01-10T15:07:13;-3.30;99.90
21627;DHT22;10975;47.872;12.972;2024-01-10T15:09:42;-3.30;99.90
21627;DHT22;10975;47.872;12.972;2024-01-10T15:12:09;-3.30;99.90
21627;DHT22;10975;47.872;12.972;2024-01-10T15:14:38;-3.30;99.90
21627;DHT22;10975;47.872;12.972;2024-01-10T15:17:07;-3.40;99.90
21627;DHT22;10975;47.872;12.972;2024-01-10T15:19:36;-3.40;99.90
21627;DHT22;10975;47.872;12.972;2024-01-10T15:22:04;-3.40;99.90
21627;DHT22;10975;47.872;12.972;2024-01-10T15:24:32;-3.50;99.90
21627;DHT22;10975;47.872;12.972;2024-01-10T15:26:59;-3.50;99.90
21627;DHT22;10975;47.872;12.972;2024-01-10T15:29:29;-3.50;99.90
21627;DHT22;10975;47.872;12.972;2024-01-10T15:31:57;-3.50;99.90
21627;DHT22;10975;47.872;12.972;2024-01-10T15:34:25;-3.50;99.90